createdAt,value
2019-03-23T00:00:38.219Z,12.60
2019-03-23T00:03:04.249Z,9.25
2019-03-23T00:05:30.288Z,7.00
2019-03-23T00:07:56.316Z,9.30
2019-03-23T00:10:22.346Z,10.45
2019-03-23T00:12:48.492Z,9.23
2019-03-23T00:15:15.119Z,10.25
2019-03-23T00:17:41.171Z,13.95
2019-03-23T00:20:08.432Z,15.58
2019-03-23T00:22:34.785Z,17.62
2019-03-23T00:25:00.796Z,20.72
2019-03-23T00:27:26.855Z,20.43
2019-03-23T00:29:52.929Z,21.90
2019-03-23T00:32:19.050Z,22.30
2019-03-23T00:34:45.088Z,21.73
2019-03-23T00:37:11.132Z,27.42
2019-03-23T00:39:37.427Z,28.75
2019-03-23T00:42:03.466Z,27.55
2019-03-23T00:44:29.552Z,23.20
2019-03-23T00:46:55.602Z,29.15
2019-03-23T00:49:21.643Z,32.00
2019-03-23T00:51:47.666Z,28.42
2019-03-23T00:54:13.693Z,28.65
2019-03-23T00:56:39.713Z,27.45
2019-03-23T00:59:05.733Z,33.10
2019-03-23T01:01:31.774Z,30.97
2019-03-23T01:03:58.442Z,32.83
2019-03-23T01:06:24.794Z,35.60
2019-03-23T01:08:50.850Z,31.90
2019-03-23T01:11:17.122Z,31.35
2019-03-23T01:13:43.162Z,35.43
2019-03-23T01:16:09.173Z,31.82
2019-03-23T01:18:35.214Z,33.02
2019-03-23T01:21:01.232Z,31.90
2019-03-23T01:23:27.290Z,33.75
2019-03-23T01:25:53.301Z,31.20
2019-03-23T01:28:19.341Z,25.97
2019-03-23T01:30:45.349Z,22.98
2019-03-23T01:33:11.379Z,26.50
2019-03-23T01:35:37.401Z,28.15
2019-03-23T01:38:03.417Z,26.50
2019-03-23T01:40:29.448Z,29.60
2019-03-23T01:42:55.467Z,23.95
2019-03-23T01:45:21.557Z,25.25
2019-03-23T01:47:47.609Z,26.05
2019-03-23T01:50:13.852Z,25.12
2019-03-23T01:52:39.888Z,25.75
2019-03-23T01:55:07.034Z,27.73
2019-03-23T01:57:33.050Z,26.42
2019-03-23T01:59:59.082Z,29.87
2019-03-23T02:02:25.118Z,34.00
2019-03-23T02:04:51.149Z,33.83
2019-03-23T02:07:17.176Z,36.98
2019-03-23T02:09:43.209Z,32.95
2019-03-23T02:12:09.227Z,36.93
2019-03-23T02:14:35.583Z,32.53
2019-03-23T02:17:01.599Z,44.27
2019-03-23T02:19:27.646Z,42.83
2019-03-23T02:21:53.668Z,40.95
2019-03-23T02:24:19.696Z,46.60
2019-03-23T02:26:45.723Z,47.50
2019-03-23T02:29:12.014Z,43.35
2019-03-23T02:31:38.042Z,45.88
2019-03-23T02:34:04.093Z,46.05
2019-03-23T02:36:30.155Z,44.98
2019-03-23T02:38:56.187Z,50.20
2019-03-23T02:41:22.383Z,53.05
2019-03-23T02:43:48.475Z,55.98
2019-03-23T02:46:14.507Z,53.78
2019-03-23T02:48:40.525Z,57.60
2019-03-23T02:51:06.550Z,55.28
2019-03-23T02:53:32.703Z,59.13
2019-03-23T02:55:58.767Z,63.17
2019-03-23T02:58:25.004Z,63.20
2019-03-23T03:00:51.014Z,63.02
2019-03-23T03:03:17.039Z,65.97
2019-03-23T03:05:43.058Z,66.77
2019-03-23T03:08:09.185Z,63.35
2019-03-23T03:10:38.808Z,68.55
2019-03-23T03:13:05.244Z,86.08
2019-03-23T03:15:31.274Z,77.10
2019-03-23T03:17:57.300Z,76.37
2019-03-23T03:20:23.455Z,74.97
2019-03-23T03:22:49.470Z,76.92
2019-03-23T03:25:15.515Z,81.90
2019-03-23T03:27:41.545Z,79.72
2019-03-23T03:30:09.595Z,71.17
2019-03-23T03:32:35.678Z,73.55
2019-03-23T03:35:01.978Z,71.28
2019-03-23T03:37:28.107Z,66.77
2019-03-23T03:39:54.346Z,61.00
2019-03-23T03:42:20.386Z,67.62
2019-03-23T03:44:46.431Z,66.47
2019-03-23T03:47:12.495Z,67.90
2019-03-23T03:49:38.515Z,66.00
2019-03-23T03:52:04.558Z,69.45
2019-03-23T03:54:30.595Z,73.25
2019-03-23T03:56:56.594Z,76.37
2019-03-23T03:59:22.938Z,63.58
2019-03-23T04:01:48.985Z,72.15
2019-03-23T04:04:15.127Z,74.20
2019-03-23T04:06:41.426Z,64.53
2019-03-23T04:09:07.425Z,79.42
2019-03-23T04:11:33.883Z,82.35
2019-03-23T04:14:00.189Z,74.32
2019-03-23T04:16:26.240Z,73.60
2019-03-23T04:18:52.256Z,113.95
2019-03-23T04:21:18.303Z,95.45
2019-03-23T04:23:44.331Z,81.85
2019-03-23T04:26:10.358Z,78.15
2019-03-23T04:28:36.374Z,72.37
2019-03-23T04:31:02.426Z,92.95
2019-03-23T04:33:28.462Z,85.55
2019-03-23T04:35:54.496Z,84.77
2019-03-23T04:38:23.115Z,83.35
2019-03-23T04:40:48.430Z,81.42
2019-03-23T04:43:14.826Z,89.45
2019-03-23T04:45:40.837Z,83.52
2019-03-23T04:48:06.887Z,90.47
2019-03-23T04:50:32.932Z,85.47
2019-03-23T04:52:58.974Z,86.85
2019-03-23T04:55:24.999Z,89.70
2019-03-23T04:57:51.050Z,89.25
2019-03-23T05:00:18.871Z,85.32
2019-03-23T05:02:45.051Z,108.03
2019-03-23T05:05:11.260Z,87.72
2019-03-23T05:07:37.300Z,89.22
2019-03-23T05:10:05.123Z,99.32
2019-03-23T05:12:31.153Z,87.45
2019-03-23T05:14:57.173Z,81.60
2019-03-23T05:17:23.217Z,94.72
2019-03-23T05:19:49.236Z,91.85
2019-03-23T05:22:15.283Z,94.13
2019-03-23T05:24:41.305Z,87.45
2019-03-23T05:27:07.353Z,82.55
2019-03-23T05:29:33.382Z,92.50
2019-03-23T05:31:59.402Z,91.40
2019-03-23T05:34:25.439Z,102.47
2019-03-23T05:36:51.835Z,81.72
2019-03-23T05:39:17.863Z,109.57
2019-03-23T05:41:43.911Z,93.50
2019-03-23T05:44:09.942Z,87.25
2019-03-23T05:46:35.949Z,82.78
2019-03-23T05:49:01.979Z,92.75
2019-03-23T05:51:28.019Z,98.85
2019-03-23T05:53:54.055Z,94.85
2019-03-23T05:56:20.094Z,94.47
2019-03-23T05:58:46.131Z,86.10
2019-03-23T06:01:12.165Z,95.07
2019-03-23T06:03:38.215Z,94.47
2019-03-23T06:06:04.259Z,98.58
2019-03-23T06:08:30.271Z,84.75
2019-03-23T06:10:56.295Z,90.05
2019-03-23T06:13:22.675Z,96.45
2019-03-23T06:15:48.708Z,105.72
2019-03-23T06:18:14.748Z,86.53
2019-03-23T06:20:40.773Z,93.70
2019-03-23T06:23:06.811Z,96.82
2019-03-23T06:25:33.211Z,94.37
2019-03-23T06:27:59.230Z,100.18
2019-03-23T06:30:25.269Z,98.65
2019-03-23T06:32:51.313Z,94.83
2019-03-23T06:35:17.411Z,102.47
2019-03-23T06:37:43.509Z,99.37
2019-03-23T06:40:18.398Z,89.75
2019-03-23T06:42:44.445Z,95.00
2019-03-23T06:45:11.083Z,99.80
2019-03-23T06:47:37.101Z,95.85
2019-03-23T06:50:05.531Z,89.97
2019-03-23T06:52:31.557Z,90.70
2019-03-23T06:54:57.578Z,107.78
2019-03-23T06:57:23.597Z,102.85
2019-03-23T06:59:49.649Z,95.05
2019-03-23T07:02:15.657Z,112.28
2019-03-23T07:04:41.683Z,97.47
2019-03-23T07:07:07.735Z,100.15
2019-03-23T07:09:33.777Z,96.55
2019-03-23T07:11:59.856Z,93.25
2019-03-23T07:14:25.940Z,93.22
2019-03-23T07:16:51.964Z,105.30
2019-03-23T07:19:17.979Z,98.70
2019-03-23T07:21:44.013Z,107.22
2019-03-23T07:24:10.029Z,98.37
2019-03-23T07:26:36.058Z,92.42
2019-03-23T07:29:02.378Z,90.32
2019-03-23T07:31:28.407Z,103.92
2019-03-23T07:33:54.421Z,93.15
2019-03-23T07:36:20.465Z,93.85
2019-03-23T07:38:47.010Z,85.60
2019-03-23T07:41:13.139Z,87.25
2019-03-23T07:43:39.170Z,88.60
2019-03-23T07:46:05.194Z,87.10
2019-03-23T07:48:31.219Z,93.12
2019-03-23T07:50:57.515Z,90.57
2019-03-23T07:53:23.544Z,91.02
2019-03-23T07:55:49.638Z,88.52
2019-03-23T07:58:15.679Z,88.20
2019-03-23T08:00:41.697Z,90.40
2019-03-23T08:03:07.713Z,92.27
2019-03-23T08:05:33.746Z,94.28
2019-03-23T08:07:59.769Z,82.62
2019-03-23T08:10:31.303Z,76.72
2019-03-23T08:12:57.427Z,78.78
2019-03-23T08:15:23.702Z,80.32
2019-03-23T08:17:49.785Z,80.60
2019-03-23T08:20:16.129Z,81.20
2019-03-23T08:22:42.181Z,80.55
2019-03-23T08:25:08.320Z,77.80
2019-03-23T08:27:34.457Z,84.07
2019-03-23T08:30:00.525Z,77.72
2019-03-23T08:32:26.553Z,83.42
2019-03-23T08:34:52.663Z,75.28
2019-03-23T08:37:18.810Z,74.55
2019-03-23T08:39:48.747Z,82.47
2019-03-23T08:42:12.833Z,78.40
2019-03-23T08:44:38.904Z,79.10
2019-03-23T08:47:04.944Z,85.12
2019-03-23T08:49:31.013Z,72.32
2019-03-23T08:51:57.047Z,75.03
2019-03-23T08:54:23.127Z,70.78
2019-03-23T08:56:49.221Z,71.82
2019-03-23T08:59:15.239Z,72.72
2019-03-23T09:01:41.262Z,67.22
2019-03-23T09:04:07.339Z,67.87
2019-03-23T09:06:33.397Z,61.92
2019-03-23T09:08:59.433Z,71.33
2019-03-23T09:11:25.448Z,72.12
2019-03-23T09:13:51.490Z,64.60
2019-03-23T09:16:17.544Z,64.37
2019-03-23T09:18:43.837Z,69.25
2019-03-23T09:21:09.873Z,58.10
2019-03-23T09:23:35.935Z,61.40
2019-03-23T09:26:01.998Z,56.60
2019-03-23T09:28:28.286Z,62.93
2019-03-23T09:30:54.340Z,53.65
2019-03-23T09:33:20.846Z,56.23
2019-03-23T09:35:46.857Z,66.45
2019-03-23T09:38:12.906Z,63.83
2019-03-23T09:40:38.933Z,65.22
2019-03-23T09:43:04.952Z,57.27
2019-03-23T09:45:30.974Z,60.17
2019-03-23T09:47:57.206Z,59.85
2019-03-23T09:50:23.228Z,59.67
2019-03-23T09:52:49.259Z,58.28
2019-03-23T09:55:15.275Z,51.23
2019-03-23T09:57:41.320Z,52.53
2019-03-23T10:00:10.248Z,52.93
2019-03-23T10:02:36.270Z,54.20
2019-03-23T10:05:03.981Z,52.73
2019-03-23T10:07:30.035Z,51.80
2019-03-23T10:09:56.110Z,61.02
2019-03-23T10:12:22.158Z,56.05
2019-03-23T10:14:48.203Z,54.23
2019-03-23T10:17:14.220Z,66.05
2019-03-23T10:19:40.342Z,71.90
2019-03-23T10:22:06.354Z,57.23
2019-03-23T10:24:32.436Z,59.48
2019-03-23T10:26:58.556Z,61.40
2019-03-23T10:29:24.592Z,51.18
2019-03-23T10:31:50.607Z,56.35
2019-03-23T10:34:16.672Z,55.60
2019-03-23T10:36:42.746Z,63.20
2019-03-23T10:39:08.822Z,53.02
2019-03-23T10:41:34.873Z,55.08
2019-03-23T10:44:00.907Z,56.10
2019-03-23T10:46:26.964Z,55.00
2019-03-23T10:48:52.987Z,53.25
2019-03-23T10:51:19.126Z,57.38
2019-03-23T10:53:45.202Z,56.40
2019-03-23T10:56:11.248Z,48.15
2019-03-23T10:58:37.285Z,54.35
2019-03-23T11:01:03.294Z,62.35
2019-03-23T11:03:29.355Z,64.75
2019-03-23T11:05:55.501Z,50.78
2019-03-23T11:08:21.612Z,55.70
2019-03-23T11:10:47.649Z,54.93
2019-03-23T11:13:13.723Z,53.63
2019-03-23T11:15:39.746Z,46.18
2019-03-23T11:18:05.772Z,46.15
2019-03-23T11:20:31.819Z,52.38
2019-03-23T11:22:57.876Z,50.58
2019-03-23T11:25:24.115Z,50.80
2019-03-23T11:27:50.139Z,48.80
2019-03-23T11:30:16.257Z,49.98
2019-03-23T11:32:42.608Z,50.85
2019-03-23T11:35:08.791Z,52.40
2019-03-23T11:37:35.497Z,56.50
2019-03-23T11:40:02.105Z,50.58
2019-03-23T11:42:28.135Z,53.87
2019-03-23T11:44:54.294Z,50.78
2019-03-23T11:47:20.442Z,62.85
2019-03-23T11:49:46.461Z,63.75
2019-03-23T11:52:12.936Z,64.35
2019-03-23T11:54:39.009Z,57.60
2019-03-23T11:57:05.191Z,55.55
2019-03-23T11:59:31.355Z,59.88
2019-03-23T12:01:57.395Z,58.25
2019-03-23T12:04:24.962Z,65.28
2019-03-23T12:06:51.378Z,63.95
2019-03-23T12:09:17.394Z,71.12
2019-03-23T12:11:43.430Z,78.12
2019-03-23T12:14:09.460Z,72.50
2019-03-23T12:16:35.793Z,74.30
2019-03-23T12:19:01.985Z,74.45
2019-03-23T12:21:28.061Z,64.10
2019-03-23T12:23:54.171Z,71.15
2019-03-23T12:26:20.506Z,66.67
2019-03-23T12:28:47.357Z,70.30
2019-03-23T12:31:13.442Z,74.07
2019-03-23T12:33:39.461Z,66.62
2019-03-23T12:36:05.493Z,70.90
2019-03-23T12:38:31.651Z,65.55
2019-03-23T12:40:57.717Z,62.08
2019-03-23T12:43:23.728Z,63.10
2019-03-23T12:45:49.790Z,70.40
2019-03-23T12:48:15.898Z,62.98
2019-03-23T12:50:42.350Z,67.40
2019-03-23T12:53:08.673Z,65.25
2019-03-23T12:55:34.707Z,60.10
2019-03-23T12:58:00.742Z,68.65
2019-03-23T13:00:26.783Z,72.35
2019-03-23T13:02:53.736Z,73.00
2019-03-23T13:05:19.777Z,67.22
2019-03-23T13:07:45.848Z,59.95
2019-03-23T13:10:12.774Z,64.72
2019-03-23T13:12:38.986Z,58.33
2019-03-23T13:15:07.728Z,59.50
2019-03-23T13:17:33.764Z,61.00
2019-03-23T13:19:59.856Z,53.38
2019-03-23T13:22:25.949Z,51.37
2019-03-23T13:24:52.011Z,63.10
2019-03-23T13:27:18.415Z,55.88
2019-03-23T13:29:44.744Z,49.77
2019-03-23T13:32:10.802Z,47.53
2019-03-23T13:34:36.838Z,49.65
2019-03-23T13:37:02.992Z,45.67
2019-03-23T13:39:29.026Z,43.55
2019-03-23T13:41:55.082Z,47.80
2019-03-23T13:44:21.123Z,56.45
2019-03-23T13:46:47.145Z,44.13
2019-03-23T13:49:13.188Z,60.25
2019-03-23T13:51:39.347Z,49.55
2019-03-23T13:54:05.386Z,45.80
2019-03-23T13:56:31.418Z,60.05
2019-03-23T13:58:57.469Z,55.43
2019-03-23T14:01:23.766Z,54.08
2019-03-23T14:03:49.874Z,61.20
2019-03-23T14:06:15.893Z,54.30
2019-03-23T14:08:41.931Z,51.30
2019-03-23T14:11:07.994Z,46.98
2019-03-23T14:13:34.044Z,46.65
2019-03-23T14:16:00.410Z,45.48
2019-03-23T14:18:26.478Z,49.50
2019-03-23T14:20:52.504Z,57.27
2019-03-23T14:23:18.527Z,49.55
2019-03-23T14:25:44.537Z,57.17
2019-03-23T14:28:10.589Z,55.15
2019-03-23T14:30:36.683Z,49.05
2019-03-23T14:33:02.739Z,41.33
2019-03-23T14:35:28.830Z,56.63
2019-03-23T14:37:54.877Z,44.10
2019-03-23T14:40:20.918Z,48.48
2019-03-23T14:42:46.947Z,47.60
2019-03-23T14:45:13.017Z,47.00
2019-03-23T14:47:39.107Z,50.63
2019-03-23T14:50:05.530Z,46.90
2019-03-23T14:52:31.545Z,45.15
2019-03-23T14:54:57.572Z,47.30
2019-03-23T14:57:23.598Z,42.65
2019-03-23T14:59:49.738Z,45.88
2019-03-23T15:02:15.750Z,44.55
2019-03-23T15:04:41.794Z,45.50
2019-03-23T15:07:07.812Z,47.43
2019-03-23T15:09:33.846Z,47.62
2019-03-23T15:11:59.859Z,50.48
2019-03-23T15:14:25.877Z,47.65
2019-03-23T15:16:51.890Z,48.87
2019-03-23T15:19:18.012Z,49.90
2019-03-23T15:21:44.143Z,50.35
2019-03-23T15:24:10.187Z,48.92
2019-03-23T15:26:36.229Z,44.45
2019-03-23T15:29:02.247Z,48.15
2019-03-23T15:31:28.289Z,50.45
2019-03-23T15:33:54.410Z,42.40
2019-03-23T15:36:20.434Z,48.17
2019-03-23T15:38:46.480Z,48.05
2019-03-23T15:41:12.510Z,47.48
2019-03-23T15:43:38.525Z,50.15
2019-03-23T15:46:04.549Z,47.27
2019-03-23T15:48:30.688Z,45.85
2019-03-23T15:50:56.714Z,43.08
2019-03-23T15:53:22.783Z,42.53
2019-03-23T15:55:48.787Z,43.73
2019-03-23T15:58:14.801Z,45.38
2019-03-23T16:00:40.816Z,44.13
2019-03-23T16:03:06.813Z,47.62
2019-03-23T16:05:32.843Z,41.40
2019-03-23T16:07:58.891Z,49.05
2019-03-23T16:10:24.946Z,44.48
2019-03-23T16:12:51.323Z,41.68
2019-03-23T16:15:17.560Z,44.95
2019-03-23T16:17:43.560Z,43.00
2019-03-23T16:20:10.730Z,48.40
2019-03-23T16:22:36.759Z,43.30
2019-03-23T16:25:07.790Z,42.40
2019-03-23T16:27:33.963Z,46.83
2019-03-23T16:29:59.996Z,43.08
2019-03-23T16:32:26.015Z,44.70
2019-03-23T16:34:52.084Z,46.95
2019-03-23T16:37:18.129Z,44.00
2019-03-23T16:39:44.206Z,49.48
2019-03-23T16:42:10.230Z,47.20
2019-03-23T16:44:36.261Z,47.75
2019-03-23T16:47:02.270Z,46.77
2019-03-23T16:49:28.339Z,42.35
2019-03-23T16:51:54.483Z,49.70
2019-03-23T16:54:20.739Z,48.17
2019-03-23T16:56:47.014Z,44.03
2019-03-23T16:59:13.140Z,48.92
2019-03-23T17:01:39.172Z,46.42
2019-03-23T17:04:05.190Z,47.40
2019-03-23T17:06:31.247Z,45.00
2019-03-23T17:08:57.272Z,47.17
2019-03-23T17:11:23.298Z,45.20
2019-03-23T17:13:49.318Z,47.90
2019-03-23T17:16:15.350Z,46.23
2019-03-23T17:18:41.359Z,47.43
2019-03-23T17:21:07.398Z,45.83
2019-03-23T17:23:33.427Z,47.48
2019-03-23T18:34:06.140Z,42.58
2019-03-23T18:36:34.572Z,39.33
2019-03-23T18:39:04.436Z,38.70
2019-03-23T18:41:32.928Z,43.67
2019-03-23T18:44:01.618Z,44.88
2019-03-23T18:46:30.056Z,43.75
2019-03-23T18:48:58.580Z,42.93
2019-03-23T18:51:27.003Z,47.70
2019-03-23T18:53:55.402Z,46.50
2019-03-23T18:56:23.854Z,45.85
2019-03-23T18:58:52.271Z,50.30
2019-03-23T19:01:20.705Z,50.17
2019-03-23T19:03:49.363Z,51.88
2019-03-23T19:06:18.007Z,48.63
2019-03-23T19:08:46.450Z,52.65
2019-03-23T19:11:15.109Z,53.33
2019-03-23T19:13:43.624Z,53.00
2019-03-23T19:16:12.109Z,52.20
2019-03-23T19:18:40.513Z,53.50
2019-03-23T19:21:08.969Z,61.73
2019-03-23T19:23:37.388Z,60.58
2019-03-23T19:26:06.063Z,57.93
2019-03-23T19:28:34.508Z,53.03
2019-03-23T19:31:02.918Z,53.13
2019-03-23T19:33:31.404Z,53.92
2019-03-23T19:35:59.822Z,60.90
2019-03-23T19:38:28.236Z,59.00
2019-03-23T19:40:56.652Z,57.00
2019-03-23T19:43:25.339Z,55.92
2019-03-23T19:45:53.784Z,56.63
2019-03-23T19:48:22.281Z,53.83
2019-03-23T19:50:50.765Z,52.80
2019-03-23T19:53:19.198Z,57.73
2019-03-23T19:55:48.517Z,56.92
2019-03-23T19:58:16.947Z,58.28
2019-03-23T20:00:45.359Z,56.95
2019-03-23T20:03:13.820Z,62.33
2019-03-23T20:05:42.294Z,58.70
2019-03-23T20:08:10.737Z,58.05
2019-03-23T20:10:39.301Z,63.25
2019-03-23T20:13:07.716Z,59.20
2019-03-23T20:15:36.121Z,60.63
2019-03-23T20:18:05.003Z,58.58
2019-03-23T20:20:33.476Z,57.17
2019-03-23T20:23:02.182Z,55.12
2019-03-23T20:25:30.617Z,58.23
2019-03-23T20:27:59.051Z,62.43
2019-03-23T20:30:28.528Z,55.12
2019-03-23T20:32:56.932Z,55.05
2019-03-23T20:35:25.660Z,58.38
2019-03-23T20:37:54.167Z,55.03
2019-03-23T20:40:22.595Z,62.13
2019-03-23T20:42:51.032Z,56.88
2019-03-23T20:45:30.373Z,58.75
2019-03-23T20:47:59.752Z,53.80
2019-03-23T20:50:28.225Z,62.10
2019-03-23T20:52:56.797Z,58.33
2019-03-23T20:55:27.156Z,60.45
2019-03-23T20:57:55.716Z,60.78
2019-03-23T21:00:24.133Z,60.25
2019-03-23T21:02:52.531Z,56.80
2019-03-23T21:05:20.946Z,55.67
2019-03-23T21:07:49.374Z,59.60
2019-03-23T21:10:17.884Z,61.05
2019-03-23T21:12:46.624Z,56.65
2019-03-23T21:15:15.120Z,58.38
2019-03-23T21:17:51.158Z,57.73
2019-03-23T21:20:14.321Z,51.23
2019-03-23T21:22:42.723Z,55.30
2019-03-23T21:25:12.251Z,53.28
2019-03-23T21:27:40.685Z,57.62
2019-03-23T21:30:16.554Z,56.83
2019-03-23T21:32:45.098Z,57.17
2019-03-23T21:35:15.807Z,57.80
2019-03-23T21:37:44.277Z,57.83
2019-03-23T21:40:12.943Z,60.43
2019-03-23T21:42:41.352Z,55.23
2019-03-23T21:45:10.521Z,54.33
2019-03-23T21:47:38.926Z,59.25
2019-03-23T21:50:09.089Z,59.80
2019-03-23T21:52:37.789Z,65.48
2019-03-23T21:55:07.595Z,60.58
2019-03-23T21:57:36.188Z,64.60
2019-03-23T22:00:06.982Z,57.15
2019-03-23T22:02:35.382Z,59.77
2019-03-23T22:05:04.965Z,58.05
2019-03-23T22:07:33.376Z,58.63
2019-03-23T22:10:01.801Z,56.58
2019-03-23T22:12:30.226Z,60.20
2019-03-23T22:14:58.645Z,61.35
2019-03-23T22:17:27.053Z,57.88
2019-03-23T22:19:55.725Z,58.98
2019-03-23T22:22:24.208Z,57.13
2019-03-23T22:24:52.632Z,54.80
2019-03-23T22:27:21.058Z,60.67
2019-03-23T22:29:49.542Z,61.15
2019-03-23T22:32:18.145Z,54.75
2019-03-23T22:34:49.129Z,57.75
2019-03-23T22:37:16.920Z,63.43
2019-03-23T22:39:45.333Z,59.90
2019-03-23T22:42:13.749Z,61.40
2019-03-23T22:44:52.142Z,59.48
2019-03-23T22:47:13.882Z,60.85
2019-03-23T22:49:42.305Z,57.67
2019-03-23T22:52:10.726Z,60.92
2019-03-23T22:54:39.524Z,59.55
2019-03-23T22:57:07.981Z,60.03
2019-03-23T22:59:36.457Z,59.83
2019-03-23T23:02:05.029Z,55.10
2019-03-23T23:04:33.785Z,58.70
2019-03-23T23:07:02.189Z,59.40
2019-03-23T23:09:30.695Z,60.73
2019-03-23T23:11:59.106Z,59.33
2019-03-23T23:14:27.531Z,60.30
2019-03-23T23:16:56.294Z,58.70
2019-03-23T23:19:24.723Z,61.30
2019-03-23T23:21:53.180Z,58.23
2019-03-23T23:24:21.866Z,56.63
2019-03-23T23:26:50.333Z,52.87
2019-03-23T23:29:18.749Z,49.97
2019-03-23T23:31:47.186Z,60.28
2019-03-23T23:34:15.600Z,54.53
2019-03-23T23:36:44.021Z,52.80
2019-03-23T23:39:12.428Z,53.00
2019-03-23T23:41:40.844Z,49.87
2019-03-23T23:44:09.256Z,52.95
2019-03-23T23:46:37.673Z,48.20
2019-03-23T23:49:06.483Z,47.83
2019-03-23T23:51:34.905Z,50.63
2019-03-23T23:54:03.393Z,47.17
2019-03-23T23:56:31.823Z,47.90
2019-03-23T23:59:00.299Z,50.10
